Time;durP1;ratioP1;P1;durP2;ratioP2;P2;SDS_P1;SDS_P2;PMS_P1;PMS_P2;Temp;Humidity;BMP_temperature;BMP_pressure;BME280_temperature;BME280_humidity;BME280_pressure;Samples;Min_cycle;Max_cycle;Signal;HPM_P1;HPM_P2
2022/05/30 00:02:10;;;;;;;;;0.25;0.00;;;;;;;;5124670;27;8915;-76
2022/05/30 00:04:36;;;;;;;;;0.00;0.00;;;;;;;;5142713;27;9832;-76
2022/05/30 00:07:01;;;;;;;;;0.00;0.00;;;;;;;;5142567;27;10006;-76
2022/05/30 00:09:27;;;;;;;;;0.00;0.00;;;;;;;;5124537;27;9855;-77
2022/05/30 00:11:52;;;;;;;;;0.00;0.00;;;;;;;;5124054;27;8826;-77
2022/05/30 00:14:17;;;;;;;;;0.00;0.00;;;;;;;;5142652;27;8775;-77
2022/05/30 00:16:42;;;;;;;;;0.00;0.00;;;;;;;;5142753;27;9528;-76
2022/05/30 00:19:08;;;;;;;;;0.00;0.00;;;;;;;;5141911;27;9606;-77
2022/05/30 00:21:33;;;;;;;;;0.00;0.00;;;;;;;;5142805;27;8842;-78
2022/05/30 00:23:58;;;;;;;;;0.00;0.00;;;;;;;;5142859;27;8778;-75
2022/05/30 00:26:25;;;;;;;;;0.00;0.00;;;;;;;;5142703;27;8884;-76
2022/05/30 00:28:51;;;;;;;;;0.00;0.00;;;;;;;;5123940;27;8836;-78
2022/05/30 00:31:17;;;;;;;;;0.00;0.00;;;;;;;;5141938;27;9783;-77
2022/05/30 00:33:44;;;;;;;;;0.00;0.00;;;;;;;;5142187;27;8774;-77
2022/05/30 00:36:09;;;;;;;;;0.00;0.00;;;;;;;;5143147;27;9632;-77
2022/05/30 00:38:35;;;;;;;;;0.00;0.00;;;;;;;;5142659;27;9676;-77
2022/05/30 00:41:00;;;;;;;;;0.00;0.00;;;;;;;;5142176;27;8794;-77
2022/05/30 00:43:27;;;;;;;;;0.00;0.00;;;;;;;;5142653;27;8877;-77
2022/05/30 00:45:54;;;;;;;;;0.00;0.00;;;;;;;;5142377;27;8755;-77
2022/05/30 00:48:21;;;;;;;;;0.00;0.00;;;;;;;;5142692;27;9706;-77
2022/05/30 00:50:49;;;;;;;;;0.00;0.00;;;;;;;;5142066;27;9565;-77
2022/05/30 00:53:14;;;;;;;;;0.00;0.00;;;;;;;;5142237;27;10679;-77
2022/05/30 00:55:40;;;;;;;;;0.00;0.00;;;;;;;;5142018;27;9636;-77
2022/05/30 00:58:07;;;;;;;;;0.00;0.00;;;;;;;;5123410;27;9373;-77
2022/05/30 01:00:33;;;;;;;;;0.00;0.00;;;;;;;;5142011;27;8841;-76
2022/05/30 01:08:28;;;;;;;;;0.00;0.00;;;;;;;;5141669;27;9655;-76
2022/05/30 01:10:53;;;;;;;;;0.00;0.00;;;;;;;;5142203;27;9762;-76
2022/05/30 01:13:18;;;;;;;;;0.00;0.00;;;;;;;;5142129;27;9735;-76
2022/05/30 01:15:44;;;;;;;;;0.00;0.00;;;;;;;;5142381;27;8774;-76
2022/05/30 01:18:09;;;;;;;;;0.00;0.00;;;;;;;;5142515;27;8796;-76
2022/05/30 01:20:40;;;;;;;;;0.00;0.00;;;;;;;;5141224;27;8798;-76
2022/05/30 01:23:15;;;;;;;;;0.00;0.00;;;;;;;;5141492;27;8863;-76
2022/05/30 01:26:04;;;;;;;;;0.00;0.00;;;;;;;;5141962;27;9828;-75
2022/05/30 01:28:32;;;;;;;;;0.00;0.00;;;;;;;;5141987;27;10679;-79
2022/05/30 01:30:57;;;;;;;;;0.00;0.00;;;;;;;;5141573;27;10483;-78
2022/05/30 01:33:22;;;;;;;;;1.00;0.00;;;;;;;;5141477;27;9936;-79
2022/05/30 01:35:48;;;;;;;;;0.00;0.00;;;;;;;;5141982;27;8793;-79
2022/05/30 01:38:13;;;;;;;;;0.00;0.00;;;;;;;;5142290;27;8788;-79
2022/05/30 01:40:38;;;;;;;;;0.00;0.00;;;;;;;;5141981;27;8806;-79
2022/05/30 01:43:04;;;;;;;;;0.00;0.00;;;;;;;;5141785;27;8805;-79
2022/05/30 01:45:29;;;;;;;;;0.00;0.00;;;;;;;;5141922;27;8806;-80
2022/05/30 01:47:54;;;;;;;;;1.00;0.00;;;;;;;;5122842;27;8879;-80
2022/05/30 01:50:24;;;;;;;;;0.00;0.00;;;;;;;;5141028;27;8834;-79
2022/05/30 01:52:49;;;;;;;;;0.00;0.00;;;;;;;;5141654;27;8777;-80
2022/05/30 01:55:15;;;;;;;;;0.25;0.00;;;;;;;;5141386;27;9688;-80
2022/05/30 01:57:40;;;;;;;;;0.25;0.00;;;;;;;;5141614;27;8804;-80
2022/05/30 02:00:06;;;;;;;;;0.00;0.00;;;;;;;;5141462;27;8771;-79
2022/05/30 02:02:32;;;;;;;;;0.00;0.00;;;;;;;;5140916;27;8842;-79
2022/05/30 02:04:57;;;;;;;;;0.00;0.00;;;;;;;;5141470;27;9846;-80
2022/05/30 02:07:22;;;;;;;;;0.00;0.00;;;;;;;;5142801;27;8779;-80
2022/05/30 02:09:47;;;;;;;;;0.00;0.00;;;;;;;;5145297;27;8782;-79
2022/05/30 02:12:13;;;;;;;;;0.00;0.00;;;;;;;;5126546;27;8826;-79
2022/05/30 02:14:38;;;;;;;;;0.00;0.00;;;;;;;;5145873;27;8793;-78
2022/05/30 02:17:04;;;;;;;;;0.00;0.00;;;;;;;;5144840;27;8833;-77
2022/05/30 02:19:59;;;;;;;;;0.00;0.00;;;;;;;;5144953;27;8861;-80
2022/05/30 02:22:29;;;;;;;;;0.00;0.00;;;;;;;;5123126;27;9795;-80
2022/05/30 02:24:54;;;;;;;;;0.00;0.00;;;;;;;;5126206;27;10130;-80
2022/05/30 02:27:23;;;;;;;;;0.00;0.00;;;;;;;;5126020;27;9785;-80
2022/05/30 02:29:48;;;;;;;;;0.00;0.00;;;;;;;;5145075;27;8775;-79
2022/05/30 02:32:15;;;;;;;;;0.00;0.00;;;;;;;;5144506;27;9630;-80
2022/05/30 02:37:24;;;;;;;;;0.00;0.00;;;;;;;;5144473;27;9731;-79
2022/05/30 02:39:49;;;;;;;;;0.00;0.00;;;;;;;;5125426;27;10025;-79
2022/05/30 02:42:14;;;;;;;;;1.00;0.00;;;;;;;;5144326;27;8794;-79
2022/05/30 02:44:40;;;;;;;;;0.00;0.00;;;;;;;;5144038;27;8780;-79
2022/05/30 02:47:05;;;;;;;;;0.00;0.00;;;;;;;;5143674;27;8789;-80
2022/05/30 02:49:31;;;;;;;;;0.00;0.00;;;;;;;;5143463;27;8810;-80
2022/05/30 02:51:56;;;;;;;;;0.00;0.00;;;;;;;;5125279;27;8814;-79
2022/05/30 02:54:22;;;;;;;;;0.00;0.00;;;;;;;;5144525;27;8839;-79
2022/05/30 02:56:49;;;;;;;;;0.75;0.00;;;;;;;;5144311;27;8933;-79
2022/05/30 02:59:15;;;;;;;;;0.00;0.00;;;;;;;;5143697;27;8795;-79
2022/05/30 03:01:40;;;;;;;;;0.00;0.00;;;;;;;;5143262;27;9959;-78
2022/05/30 03:04:06;;;;;;;;;0.00;0.00;;;;;;;;5143157;27;11398;-79
2022/05/30 03:06:31;;;;;;;;;0.00;0.00;;;;;;;;5144188;27;8794;-79
2022/05/30 03:08:57;;;;;;;;;0.00;0.00;;;;;;;;5144212;27;8793;-79
2022/05/30 03:11:22;;;;;;;;;0.00;0.00;;;;;;;;5143758;27;8826;-78
2022/05/30 03:13:48;;;;;;;;;0.00;0.00;;;;;;;;5143736;27;8774;-78
2022/05/30 03:16:13;;;;;;;;;0.50;0.00;;;;;;;;5124891;27;8829;-79
2022/05/30 03:18:38;;;;;;;;;1.00;0.00;;;;;;;;5124626;27;9292;-79
2022/05/30 03:21:05;;;;;;;;;0.75;0.00;;;;;;;;5142576;27;8823;-79
2022/05/30 03:23:30;;;;;;;;;1.50;0.00;;;;;;;;5142985;27;8905;-79
2022/05/30 03:25:55;;;;;;;;;0.00;0.00;;;;;;;;5143916;27;10772;-78
2022/05/30 03:28:21;;;;;;;;;0.00;0.00;;;;;;;;5143556;27;8894;-79
2022/05/30 03:30:46;;;;;;;;;0.00;0.00;;;;;;;;5144134;27;9479;-80
2022/05/30 03:33:11;;;;;;;;;0.00;0.00;;;;;;;;5125190;27;8802;-79
2022/05/30 03:35:37;;;;;;;;;1.00;0.00;;;;;;;;5124667;27;8874;-79
2022/05/30 03:38:03;;;;;;;;;0.00;0.00;;;;;;;;5143221;27;8783;-78
2022/05/30 03:40:29;;;;;;;;;0.00;0.00;;;;;;;;5124173;27;9498;-78
2022/05/30 03:42:54;;;;;;;;;1.75;0.00;;;;;;;;5142847;27;8794;-78
2022/05/30 03:45:20;;;;;;;;;0.25;0.25;;;;;;;;5123721;27;11848;-78
2022/05/30 03:47:46;;;;;;;;;0.00;0.00;;;;;;;;5124186;27;13525;-78
2022/05/30 03:50:13;;;;;;;;;0.00;0.00;;;;;;;;5142810;27;9600;-79
2022/05/30 03:52:38;;;;;;;;;0.00;0.00;;;;;;;;5124763;27;8805;-80
2022/05/30 03:55:08;;;;;;;;;0.00;0.00;;;;;;;;5142198;27;10069;-77
2022/05/30 03:57:33;;;;;;;;;2.00;0.25;;;;;;;;5142590;27;9337;-77
2022/05/30 03:59:59;;;;;;;;;1.00;1.00;;;;;;;;5141434;27;13375;-75
2022/05/30 04:02:25;;;;;;;;;0.25;0.25;;;;;;;;5141278;27;11640;-78
2022/05/30 04:04:51;;;;;;;;;0.00;0.00;;;;;;;;5142875;27;11300;-79
2022/05/30 04:07:16;;;;;;;;;0.25;0.25;;;;;;;;5142889;27;8782;-78
2022/05/30 04:09:41;;;;;;;;;0.00;0.00;;;;;;;;5123616;27;10179;-77
2022/05/30 04:12:07;;;;;;;;;1.00;1.00;;;;;;;;5142706;27;8806;-79
2022/05/30 04:14:32;;;;;;;;;0.50;0.50;;;;;;;;5142617;27;8817;-80
2022/05/30 04:16:57;;;;;;;;;1.00;1.00;;;;;;;;5141876;27;11379;-80
2022/05/30 04:19:23;;;;;;;;;0.75;0.00;;;;;;;;5142491;27;12457;-79
2022/05/30 04:21:48;;;;;;;;;0.25;0.00;;;;;;;;5141620;27;10963;-78
2022/05/30 04:24:13;;;;;;;;;1.00;1.00;;;;;;;;5142174;27;8821;-78
2022/05/30 04:26:39;;;;;;;;;1.00;1.00;;;;;;;;5142201;27;12169;-77
2022/05/30 04:29:05;;;;;;;;;0.00;0.00;;;;;;;;5141582;27;8786;-76
2022/05/30 04:31:30;;;;;;;;;0.00;0.00;;;;;;;;5141006;27;10188;-78
2022/05/30 04:33:55;;;;;;;;;0.00;0.00;;;;;;;;5142818;27;8882;-80
2022/05/30 04:36:21;;;;;;;;;2.75;1.75;;;;;;;;5142991;27;8861;-81
2022/05/30 04:38:46;;;;;;;;;2.50;2.00;;;;;;;;5142176;27;11289;-79
2022/05/30 04:41:11;;;;;;;;;3.25;3.00;;;;;;;;5142099;27;10447;-76
2022/05/30 04:43:37;;;;;;;;;3.25;3.00;;;;;;;;5134934;27;10320;-74
2022/05/30 04:46:16;;;;;;;;;2.50;1.75;;;;;;;;5120504;27;8818;-74
2022/05/30 04:48:42;;;;;;;;;11.00;7.00;;;;;;;;5137010;27;11461;-73
2022/05/30 04:51:07;;;;;;;;;7.00;7.00;;;;;;;;5140647;27;21578;-74
2022/05/30 04:53:33;;;;;;;;;4.00;3.00;;;;;;;;5140577;27;16261;-74
2022/05/30 04:55:58;;;;;;;;;2.25;1.25;;;;;;;;5135488;27;9502;-75
2022/05/30 04:58:25;;;;;;;;;3.75;2.00;;;;;;;;5140684;27;11923;-73
2022/05/30 05:00:55;;;;;;;;;3.00;2.75;;;;;;;;5140036;27;11819;-77
2022/05/30 05:03:21;;;;;;;;;1.00;1.00;;;;;;;;5139164;27;10464;-80
2022/05/30 05:05:46;;;;;;;;;4.25;2.00;;;;;;;;5139528;27;11272;-79
2022/05/30 05:08:20;;;;;;;;;2.00;2.00;;;;;;;;5122707;27;10978;-79
2022/05/30 05:11:04;;;;;;;;;2.00;1.00;;;;;;;;5120189;27;9115;-80
2022/05/30 05:13:42;;;;;;;;;5.00;3.25;;;;;;;;5120523;27;10245;-79
2022/05/30 05:16:07;;;;;;;;;1.50;1.00;;;;;;;;5129259;27;11572;-79
2022/05/30 05:18:33;;;;;;;;;1.50;1.00;;;;;;;;5140882;27;12931;-84
2022/05/30 05:20:58;;;;;;;;;10.00;5.00;;;;;;;;5122788;27;8809;-82
2022/05/30 05:23:27;;;;;;;;;6.00;3.75;;;;;;;;5140539;27;21609;-80
2022/05/30 05:25:52;;;;;;;;;4.25;4.25;;;;;;;;5142285;27;21666;-79
2022/05/30 05:28:17;;;;;;;;;5.25;1.25;;;;;;;;5141545;27;10326;-79
2022/05/30 05:30:43;;;;;;;;;2.00;1.00;;;;;;;;5122343;27;10175;-79
2022/05/30 05:33:09;;;;;;;;;1.00;1.00;;;;;;;;5141270;27;11425;-78
2022/05/30 05:35:54;;;;;;;;;4.00;2.50;;;;;;;;5141367;27;8771;-78
2022/05/30 05:38:19;;;;;;;;;5.25;2.00;;;;;;;;5140175;27;11659;-83
2022/05/30 05:40:45;;;;;;;;;2.00;2.00;;;;;;;;5140389;27;11819;-81
2022/05/30 05:43:11;;;;;;;;;4.25;3.25;;;;;;;;5129590;27;9134;-83
2022/05/30 05:45:38;;;;;;;;;5.50;3.00;;;;;;;;5142624;27;12579;-76
2022/05/30 05:48:03;;;;;;;;;2.00;1.00;;;;;;;;5143630;27;11452;-77
2022/05/30 05:50:28;;;;;;;;;2.75;2.00;;;;;;;;5144535;27;10780;-77
2022/05/30 05:52:54;;;;;;;;;2.25;2.25;;;;;;;;5143952;27;10164;-80
2022/05/30 05:55:20;;;;;;;;;9.25;8.00;;;;;;;;5144014;27;10038;-78
2022/05/30 05:57:45;;;;;;;;;9.25;7.00;;;;;;;;5125568;27;13469;-79
2022/05/30 06:00:11;;;;;;;;;1.00;1.00;;;;;;;;5142644;27;8856;-76
2022/05/30 06:02:38;;;;;;;;;5.25;4.75;;;;;;;;5143642;27;10270;-78
2022/05/30 06:05:03;;;;;;;;;10.75;9.50;;;;;;;;5143762;27;11808;-82
2022/05/30 06:07:28;;;;;;;;;6.25;4.00;;;;;;;;5125455;27;23749;-81
2022/05/30 06:09:54;;;;;;;;;6.25;4.75;;;;;;;;5143580;27;21542;-82
2022/05/30 06:12:20;;;;;;;;;9.75;8.50;;;;;;;;5143721;27;8810;-76
2022/05/30 06:14:45;;;;;;;;;14.75;11.00;;;;;;;;5144088;27;11372;-79
2022/05/30 06:17:11;;;;;;;;;10.25;10.25;;;;;;;;5143279;27;22541;-78
2022/05/30 06:19:36;;;;;;;;;23.50;19.75;;;;;;;;5143677;27;11655;-78
2022/05/30 06:22:02;;;;;;;;;14.00;12.00;;;;;;;;5142678;27;12317;-77
2022/05/30 06:24:27;;;;;;;;;11.50;10.25;;;;;;;;5142769;27;14069;-78
2022/05/30 06:26:52;;;;;;;;;42.50;36.50;;;;;;;;5124517;27;13471;-78
2022/05/30 06:29:18;;;;;;;;;33.50;22.75;;;;;;;;5144023;27;13419;-77
2022/05/30 06:31:43;;;;;;;;;29.25;22.75;;;;;;;;5144156;27;13221;-84
2022/05/30 06:34:08;;;;;;;;;20.50;17.25;;;;;;;;5124377;27;12221;-81
2022/05/30 06:36:35;;;;;;;;;12.00;10.00;;;;;;;;5123054;27;13384;-79
2022/05/30 06:39:00;;;;;;;;;3.00;3.00;;;;;;;;5112040;27;15625;-78
2022/05/30 06:41:27;;;;;;;;;1.00;1.00;;;;;;;;5141359;27;22285;-76
2022/05/30 06:43:54;;;;;;;;;8.25;7.00;;;;;;;;5122740;27;11092;-76
2022/05/30 06:46:19;;;;;;;;;21.50;15.50;;;;;;;;5139366;27;10865;-75
2022/05/30 06:48:46;;;;;;;;;3.00;3.00;;;;;;;;5122523;27;23050;-79
2022/05/30 06:51:13;;;;;;;;;1.75;0.00;;;;;;;;5141246;27;22541;-76
2022/05/30 06:53:40;;;;;;;;;1.75;1.75;;;;;;;;5119419;27;12858;-76
2022/05/30 06:56:16;;;;;;;;;2.00;1.00;;;;;;;;5141768;27;9679;-77
2022/05/30 06:58:46;;;;;;;;;3.00;2.00;;;;;;;;5137242;27;11440;-82
2022/05/30 07:01:11;;;;;;;;;2.00;2.00;;;;;;;;5140255;27;10219;-81
2022/05/30 07:03:37;;;;;;;;;1.50;1.50;;;;;;;;5141116;27;9696;-80
2022/05/30 07:06:05;;;;;;;;;1.25;1.25;;;;;;;;5141405;27;11331;-79
2022/05/30 07:08:33;;;;;;;;;3.25;2.00;;;;;;;;5123420;27;9037;-78
2022/05/30 07:10:58;;;;;;;;;2.75;2.75;;;;;;;;5119993;27;13551;-80
2022/05/30 07:13:23;;;;;;;;;3.00;2.00;;;;;;;;5141292;27;11290;-79
2022/05/30 07:15:51;;;;;;;;;5.00;4.00;;;;;;;;5141572;27;11343;-80
2022/05/30 07:18:17;;;;;;;;;3.00;2.00;;;;;;;;5122913;27;9028;-77
2022/05/30 07:20:43;;;;;;;;;3.25;2.75;;;;;;;;5141197;27;9647;-79
2022/05/30 07:23:08;;;;;;;;;2.00;1.00;;;;;;;;5141366;27;9703;-78
2022/05/30 07:25:35;;;;;;;;;3.00;2.00;;;;;;;;5140594;27;11267;-76
2022/05/30 07:28:01;;;;;;;;;3.25;2.25;;;;;;;;5141640;27;8788;-78
2022/05/30 07:30:26;;;;;;;;;6.00;6.00;;;;;;;;5141590;27;9534;-76
2022/05/30 07:32:51;;;;;;;;;6.50;5.00;;;;;;;;5141371;27;11384;-78
2022/05/30 07:35:17;;;;;;;;;5.00;4.25;;;;;;;;5141299;27;9691;-78
2022/05/30 07:37:43;;;;;;;;;2.50;2.50;;;;;;;;5141111;27;12436;-79
2022/05/30 07:40:08;;;;;;;;;3.00;3.00;;;;;;;;5140361;27;11311;-78
2022/05/30 07:42:34;;;;;;;;;4.33;2.00;;;;;;;;5140626;27;11414;-78
2022/05/30 07:44:59;;;;;;;;;2.67;2.00;;;;;;;;5141598;27;10337;-78
2022/05/30 07:47:24;;;;;;;;;4.00;3.67;;;;;;;;5138465;27;9495;-77
2022/05/30 07:49:50;;;;;;;;;3.00;3.00;;;;;;;;5141576;27;11484;-79
2022/05/30 07:52:15;;;;;;;;;5.00;3.00;;;;;;;;5140882;27;11338;-79
2022/05/30 07:54:41;;;;;;;;;4.67;4.67;;;;;;;;5141138;27;8808;-78
2022/05/30 07:57:06;;;;;;;;;4.00;3.00;;;;;;;;5140795;27;11844;-78
2022/05/30 07:59:32;;;;;;;;;3.67;3.67;;;;;;;;5140769;27;10274;-79
2022/05/30 08:01:58;;;;;;;;;2.00;2.00;;;;;;;;5140025;27;12578;-78
2022/05/30 08:04:24;;;;;;;;;3.00;3.00;;;;;;;;5121577;27;13254;-81
2022/05/30 08:06:49;;;;;;;;;4.00;4.00;;;;;;;;5140701;27;8782;-80
2022/05/30 08:09:14;;;;;;;;;3.67;3.67;;;;;;;;5140716;27;8932;-79
2022/05/30 08:11:39;;;;;;;;;3.33;3.33;;;;;;;;5141331;27;11488;-80
2022/05/30 08:14:07;;;;;;;;;3.67;3.00;;;;;;;;5140920;27;8953;-81
2022/05/30 08:16:37;;;;;;;;;5.50;4.75;;;;;;;;5121710;27;8825;-78
2022/05/30 08:19:03;;;;;;;;;9.00;8.00;;;;;;;;5137800;27;11664;-78
2022/05/30 08:21:28;;;;;;;;;8.67;8.00;;;;;;;;5138931;27;11381;-79
2022/05/30 08:23:53;;;;;;;;;3.67;3.67;;;;;;;;5119880;27;11143;-84
2022/05/30 08:26:18;;;;;;;;;5.00;4.33;;;;;;;;5120058;27;11569;-77
2022/05/30 08:28:45;;;;;;;;;5.00;3.33;;;;;;;;5140002;27;13089;-76
2022/05/30 08:31:10;;;;;;;;;12.75;11.00;;;;;;;;5141061;27;8901;-76
2022/05/30 08:33:36;;;;;;;;;12.33;11.33;;;;;;;;5117816;27;22617;-79
2022/05/30 08:36:04;;;;;;;;;10.67;9.00;;;;;;;;5138437;27;8826;-76
2022/05/30 08:38:33;;;;;;;;;5.25;5.25;;;;;;;;5137159;27;21479;-75
2022/05/30 08:43:49;;;;;;;;;5.75;5.75;;;;;;;;5137459;27;11355;-73
2022/05/30 08:46:32;;;;;;;;;5.25;5.25;;;;;;;;5139506;27;11376;-74
2022/05/30 08:49:22;;;;;;;;;6.00;6.00;;;;;;;;5139175;27;8802;-73
2022/05/30 08:52:06;;;;;;;;;4.25;4.25;;;;;;;;5118781;27;13680;-74
2022/05/30 08:54:50;;;;;;;;;6.00;4.50;;;;;;;;5137997;27;11397;-74
2022/05/30 08:57:21;;;;;;;;;6.00;4.67;;;;;;;;5140407;27;12593;-74
2022/05/30 09:00:00;;;;;;;;;4.25;4.25;;;;;;;;5137757;27;8877;-74
2022/05/30 09:02:35;;;;;;;;;5.00;4.25;;;;;;;;5140111;27;12774;-75
2022/05/30 09:05:06;;;;;;;;;2.75;2.75;;;;;;;;5139600;27;10260;-76
2022/05/30 09:07:33;;;;;;;;;9.00;8.00;;;;;;;;5101175;28;11770;-74
2022/05/30 09:10:02;;;;;;;;;4.50;3.00;;;;;;;;5120577;28;11390;-77
2022/05/30 09:12:28;;;;;;;;;4.00;4.00;;;;;;;;5129367;27;10519;-74
2022/05/30 09:15:01;;;;;;;;;8.00;8.00;;;;;;;;5140880;27;9744;-73
2022/05/30 09:17:34;;;;;;;;;5.00;4.33;;;;;;;;5141067;27;10020;-76
2022/05/30 09:20:02;;;;;;;;;9.00;8.00;;;;;;;;5140184;27;11635;-75
2022/05/30 09:22:28;;;;;;;;;12.00;9.33;;;;;;;;5140968;27;11960;-74
2022/05/30 09:27:37;;;;;;;;;15.00;10.00;;;;;;;;5140489;27;21395;-74
2022/05/30 09:30:05;;;;;;;;;9.00;7.00;;;;;;;;5140752;27;10555;-74
2022/05/30 09:32:34;;;;;;;;;7.00;7.00;;;;;;;;5140322;27;22502;-73
2022/05/30 09:35:17;;;;;;;;;10.00;9.00;;;;;;;;5141100;27;8848;-73
2022/05/30 09:37:42;;;;;;;;;22.25;22.25;;;;;;;;5121654;27;23567;-74
2022/05/30 09:40:08;;;;;;;;;6.00;4.67;;;;;;;;5137459;27;22911;-77
2022/05/30 09:42:37;;;;;;;;;20.50;19.00;;;;;;;;5138046;27;23586;-77
2022/05/30 09:45:13;;;;;;;;;16.67;16.67;;;;;;;;5140102;27;22859;-78
2022/05/30 09:47:56;;;;;;;;;6.00;5.75;;;;;;;;5140722;27;13289;-78
2022/05/30 09:50:23;;;;;;;;;13.75;13.75;;;;;;;;5140714;27;22697;-80
2022/05/30 09:52:48;;;;;;;;;17.33;16.00;;;;;;;;5140352;27;22475;-80
2022/05/30 09:55:20;;;;;;;;;3.00;3.00;;;;;;;;5140573;27;11376;-79
2022/05/30 09:57:46;;;;;;;;;22.00;19.50;;;;;;;;5140469;27;22386;-80
2022/05/30 10:00:20;;;;;;;;;4.00;4.00;;;;;;;;5140031;27;22915;-77
2022/05/30 10:02:57;;;;;;;;;6.33;4.00;;;;;;;;5141020;27;24003;-78
2022/05/30 10:05:26;;;;;;;;;12.33;12.00;;;;;;;;5140350;27;10184;-77
2022/05/30 10:07:51;;;;;;;;;14.67;12.33;;;;;;;;5140121;27;23094;-73
2022/05/30 10:10:21;;;;;;;;;18.00;16.25;;;;;;;;5140621;27;11630;-77
2022/05/30 10:12:54;;;;;;;;;10.00;10.00;;;;;;;;5140179;27;10659;-76
2022/05/30 10:15:23;;;;;;;;;5.00;3.00;;;;;;;;5139908;27;12061;-78
2022/05/30 10:17:49;;;;;;;;;10.00;8.00;;;;;;;;5141053;27;22875;-77
2022/05/30 10:20:20;;;;;;;;;6.75;5.50;;;;;;;;5145667;27;22338;-80
2022/05/30 10:28:53;;;;;;;;;7.00;5.50;;;;;;;;5142019;27;11501;-77
2022/05/30 10:31:31;;;;;;;;;7.67;6.33;;;;;;;;5141505;27;11391;-76
2022/05/30 10:33:57;;;;;;;;;3.00;3.00;;;;;;;;5127130;28;10358;-77
2022/05/30 10:36:30;;;;;;;;;9.00;5.33;;;;;;;;5128573;28;11304;-78
2022/05/30 10:39:11;;;;;;;;;17.25;15.25;;;;;;;;5130267;27;12745;-76
2022/05/30 10:41:47;;;;;;;;;14.25;14.25;;;;;;;;5146262;27;22516;-79
2022/05/30 10:44:13;;;;;;;;;11.50;11.50;;;;;;;;5133791;27;9640;-81
2022/05/30 10:46:43;;;;;;;;;18.00;15.00;;;;;;;;5127470;27;14618;-77
2022/05/30 10:49:14;;;;;;;;;11.00;9.67;;;;;;;;5140796;27;11634;-77
2022/05/30 10:52:00;;;;;;;;;13.25;12.25;;;;;;;;5140792;27;21787;-77
2022/05/30 10:54:42;;;;;;;;;16.00;14.50;;;;;;;;5142501;27;21522;-80
2022/05/30 10:57:13;;;;;;;;;7.67;7.33;;;;;;;;5141516;27;11870;-78
2022/05/30 10:59:43;;;;;;;;;9.00;7.00;;;;;;;;5140535;27;23483;-79
2022/05/30 11:02:18;;;;;;;;;5.33;5.33;;;;;;;;5123982;27;11636;-76
2022/05/30 11:04:46;;;;;;;;;8.00;7.67;;;;;;;;5140706;27;11611;-79
2022/05/30 11:07:22;;;;;;;;;11.00;8.00;;;;;;;;5142947;27;12047;-78
2022/05/30 11:09:56;;;;;;;;;11.33;10.00;;;;;;;;5141017;27;21546;-78
2022/05/30 11:12:30;;;;;;;;;17.50;12.00;;;;;;;;5121182;28;21832;-79
2022/05/30 11:14:55;;;;;;;;;8.00;8.00;;;;;;;;5118661;28;12670;-77
2022/05/30 11:17:26;;;;;;;;;7.67;7.67;;;;;;;;5121677;28;23418;-80
2022/05/30 11:20:13;;;;;;;;;7.67;7.67;;;;;;;;5122473;28;11369;-76
2022/05/30 11:22:44;;;;;;;;;7.00;6.00;;;;;;;;5122986;28;8961;-78
2022/05/30 11:25:14;;;;;;;;;6.00;5.00;;;;;;;;5122301;28;10347;-79
2022/05/30 11:27:41;;;;;;;;;13.67;12.67;;;;;;;;5122334;28;9904;-80
2022/05/30 11:30:07;;;;;;;;;10.00;10.00;;;;;;;;5119951;28;24726;-78
2022/05/30 11:32:38;;;;;;;;;11.33;11.33;;;;;;;;5121650;28;11528;-83
2022/05/30 11:35:23;;;;;;;;;12.00;12.00;;;;;;;;5103531;28;13425;-78
2022/05/30 11:38:11;;;;;;;;;7.00;5.75;;;;;;;;5122514;28;11511;-80
2022/05/30 11:40:53;;;;;;;;;9.00;7.00;;;;;;;;5123301;27;23590;-77
2022/05/30 11:43:33;;;;;;;;;6.00;4.50;;;;;;;;5139741;27;11387;-78
2022/05/30 11:46:12;;;;;;;;;12.67;9.00;;;;;;;;5123108;27;12303;-78
2022/05/30 11:48:40;;;;;;;;;8.00;7.50;;;;;;;;5136056;27;21685;-79
2022/05/30 11:51:15;;;;;;;;;8.67;7.67;;;;;;;;5120385;27;21697;-79
2022/05/30 11:53:55;;;;;;;;;4.50;4.50;;;;;;;;5122534;27;10601;-77
2022/05/30 11:56:33;;;;;;;;;5.00;5.00;;;;;;;;5141701;27;12978;-78
2022/05/30 11:59:17;;;;;;;;;6.00;6.00;;;;;;;;5141467;27;11543;-78
2022/05/30 12:01:44;;;;;;;;;9.00;8.67;;;;;;;;5122464;27;10366;-78
2022/05/30 12:04:36;;;;;;;;;6.00;6.00;;;;;;;;5138915;27;11612;-76
2022/05/30 12:07:20;;;;;;;;;7.00;7.00;;;;;;;;5136359;27;11658;-78
2022/05/30 12:10:11;;;;;;;;;8.00;8.00;;;;;;;;5141954;27;8983;-78
2022/05/30 12:12:55;;;;;;;;;6.00;6.00;;;;;;;;5122751;27;10708;-75
2022/05/30 12:15:29;;;;;;;;;5.33;5.33;;;;;;;;5142437;27;9060;-76
2022/05/30 12:24:01;;;;;;;;;6.33;6.00;;;;;;;;5037845;28;8909;-78
2022/05/30 12:26:49;;;;;;;;;5.25;4.25;;;;;;;;5035926;28;9196;-78
2022/05/30 12:29:33;;;;;;;;;7.25;5.50;;;;;;;;4999294;28;15355;-83
2022/05/30 12:32:08;;;;;;;;;5.33;5.33;;;;;;;;5058753;28;12603;-82
2022/05/30 12:34:54;;;;;;;;;8.00;7.00;;;;;;;;5094636;28;11812;-82
2022/05/30 12:37:41;;;;;;;;;7.33;6.33;;;;;;;;5096392;28;11443;-81
2022/05/30 12:40:12;;;;;;;;;6.00;5.50;;;;;;;;5110191;27;14126;-79
2022/05/30 12:42:42;;;;;;;;;6.00;6.00;;;;;;;;5141042;27;11421;-77
2022/05/30 12:45:41;;;;;;;;;6.33;6.33;;;;;;;;5122467;27;10058;-78
2022/05/30 12:48:18;;;;;;;;;8.33;8.00;;;;;;;;5034395;28;9007;-80
2022/05/30 12:50:57;;;;;;;;;6.00;6.00;;;;;;;;5037817;28;12161;-80
2022/05/30 12:53:23;;;;;;;;;6.00;6.00;;;;;;;;5020734;28;12802;-82
2022/05/30 12:55:53;;;;;;;;;5.00;5.00;;;;;;;;5037597;28;9019;-80
2022/05/30 12:58:20;;;;;;;;;5.50;5.25;;;;;;;;5106765;27;8916;-80
2022/05/30 13:00:48;;;;;;;;;6.33;6.33;;;;;;;;5121718;27;10701;-78
2022/05/30 13:03:20;;;;;;;;;9.00;7.00;;;;;;;;5138353;27;10702;-80
2022/05/30 13:05:57;;;;;;;;;5.33;5.33;;;;;;;;5140475;27;11590;-79
2022/05/30 13:08:41;;;;;;;;;10.00;10.00;;;;;;;;5139013;27;11614;-80
2022/05/30 13:11:06;;;;;;;;;11.00;9.33;;;;;;;;5139252;27;23005;-79
2022/05/30 13:13:34;;;;;;;;;6.00;6.00;;;;;;;;5119468;27;24872;-80
2022/05/30 13:16:04;;;;;;;;;4.67;4.67;;;;;;;;5139436;27;23186;-80
2022/05/30 13:18:30;;;;;;;;;8.00;6.33;;;;;;;;5138365;27;11917;-82
2022/05/30 13:21:01;;;;;;;;;6.67;5.00;;;;;;;;5140408;27;11560;-81
2022/05/30 13:23:27;;;;;;;;;8.33;7.00;;;;;;;;5141098;27;12967;-81
2022/05/30 13:25:52;;;;;;;;;6.50;4.25;;;;;;;;5141122;27;12016;-80
2022/05/30 13:28:21;;;;;;;;;18.25;17.75;;;;;;;;5127945;27;12535;-81
2022/05/30 13:30:47;;;;;;;;;21.25;19.25;;;;;;;;5144209;27;22583;-79
2022/05/30 13:33:21;;;;;;;;;6.00;5.33;;;;;;;;5144800;27;12179;-77
2022/05/30 13:35:50;;;;;;;;;4.67;4.33;;;;;;;;5140872;27;22529;-80
2022/05/30 13:38:15;;;;;;;;;7.00;6.00;;;;;;;;5122125;27;12176;-82
2022/05/30 13:40:40;;;;;;;;;6.00;6.00;;;;;;;;5141126;27;11596;-81
2022/05/30 13:43:08;;;;;;;;;6.00;5.00;;;;;;;;5140912;27;8842;-81
2022/05/30 13:45:39;;;;;;;;;4.33;3.00;;;;;;;;5138673;27;9540;-78
2022/05/30 13:48:09;;;;;;;;;7.00;4.67;;;;;;;;5120940;27;10392;-80
2022/05/30 13:50:46;;;;;;;;;21.75;17.75;;;;;;;;5139662;27;11466;-79
2022/05/30 13:53:12;;;;;;;;;19.25;16.00;;;;;;;;5140074;27;22870;-82
2022/05/30 13:55:40;;;;;;;;;16.00;16.00;;;;;;;;5140581;27;13283;-80
2022/05/30 13:58:06;;;;;;;;;18.25;15.25;;;;;;;;5140310;27;9644;-79
2022/05/30 14:00:34;;;;;;;;;11.00;9.00;;;;;;;;5140839;27;11522;-77
2022/05/30 14:02:59;;;;;;;;;9.75;9.75;;;;;;;;5138498;27;21664;-80
2022/05/30 14:05:31;;;;;;;;;5.67;5.33;;;;;;;;5123018;27;23406;-80
2022/05/30 14:07:57;;;;;;;;;9.00;7.00;;;;;;;;5143592;27;10585;-78
2022/05/30 14:10:24;;;;;;;;;12.00;10.33;;;;;;;;5144378;27;12107;-79
2022/05/30 14:12:50;;;;;;;;;14.50;14.00;;;;;;;;5142371;27;22981;-80
2022/05/30 14:15:20;;;;;;;;;5.25;5.00;;;;;;;;5125519;27;14878;-78
2022/05/30 14:17:48;;;;;;;;;4.33;4.00;;;;;;;;5143013;27;22284;-77
2022/05/30 14:20:27;;;;;;;;;10.33;9.33;;;;;;;;5143448;27;8884;-78
2022/05/30 14:23:07;;;;;;;;;5.00;5.00;;;;;;;;5143122;27;21699;-80
2022/05/30 14:25:35;;;;;;;;;11.33;10.67;;;;;;;;5143371;27;21456;-87
2022/05/30 14:28:07;;;;;;;;;7.00;5.67;;;;;;;;5143325;27;22767;-83
2022/05/30 14:30:33;;;;;;;;;4.75;4.75;;;;;;;;5121270;27;23406;-82
2022/05/30 14:33:06;;;;;;;;;4.00;4.00;;;;;;;;5143837;27;11472;-77
2022/05/30 14:35:32;;;;;;;;;5.33;5.00;;;;;;;;5144427;27;8864;-79
2022/05/30 14:38:05;;;;;;;;;9.33;7.00;;;;;;;;5144066;27;10843;-80
2022/05/30 14:40:38;;;;;;;;;14.25;11.75;;;;;;;;5143594;27;8801;-75
2022/05/30 14:43:20;;;;;;;;;7.33;7.00;;;;;;;;5123448;27;22680;-79
2022/05/30 14:45:46;;;;;;;;;15.00;11.00;;;;;;;;5142680;27;22437;-79
2022/05/30 14:48:18;;;;;;;;;9.00;8.00;;;;;;;;5142394;27;23555;-79
2022/05/30 14:51:04;;;;;;;;;16.50;14.25;;;;;;;;5142499;27;23464;-79
2022/05/30 14:53:30;;;;;;;;;8.33;8.33;;;;;;;;5141663;27;23510;-79
2022/05/30 14:55:59;;;;;;;;;11.25;11.25;;;;;;;;5142970;27;22700;-79
2022/05/30 14:58:38;;;;;;;;;15.00;13.00;;;;;;;;5123571;27;23892;-78
2022/05/30 15:01:05;;;;;;;;;8.67;8.67;;;;;;;;5142867;27;11729;-80
2022/05/30 15:06:17;;;;;;;;;4.00;4.00;;;;;;;;5127229;27;9495;-79
2022/05/30 15:08:42;;;;;;;;;6.33;6.00;;;;;;;;5143368;27;11434;-78
2022/05/30 15:11:16;;;;;;;;;9.33;9.33;;;;;;;;5124419;27;10700;-79
2022/05/30 15:13:47;;;;;;;;;12.00;12.00;;;;;;;;5124206;27;13760;-79
2022/05/30 15:16:13;;;;;;;;;4.75;4.25;;;;;;;;5123558;27;24529;-79
2022/05/30 15:18:38;;;;;;;;;19.75;16.75;;;;;;;;5142661;27;23633;-79
2022/05/30 15:21:04;;;;;;;;;11.75;11.50;;;;;;;;5141906;27;24105;-79
2022/05/30 15:23:29;;;;;;;;;12.50;10.00;;;;;;;;5123963;27;13844;-79